createdAt,value
2019-02-27T00:00:43.770Z,1019.47
2019-02-27T00:01:40.098Z,1019.45
2019-02-27T00:02:40.090Z,1019.46
2019-02-27T00:03:40.096Z,1019.44
2019-02-27T00:04:40.074Z,1019.42
2019-02-27T00:05:41.819Z,1019.41
2019-02-27T00:06:40.068Z,1019.44
2019-02-27T00:07:40.031Z,1019.45
2019-02-27T00:08:40.018Z,1019.43
2019-02-27T00:09:40.040Z,1019.42
2019-02-27T00:10:39.998Z,1019.39
2019-02-27T00:11:40.001Z,1019.42
2019-02-27T00:12:39.971Z,1019.38
2019-02-27T00:13:39.964Z,1019.42
2019-02-27T00:14:39.970Z,1019.42
2019-02-27T00:15:39.940Z,1019.37
2019-02-27T00:16:41.780Z,1019.41
2019-02-27T00:17:39.927Z,1019.41
2019-02-27T00:18:39.908Z,1019.41
2019-02-27T00:19:39.924Z,1019.44
2019-02-27T00:20:39.897Z,1019.45
2019-02-27T00:21:40.888Z,1019.43
2019-02-27T00:22:39.861Z,1019.43
2019-02-27T00:23:39.853Z,1019.41
2019-02-27T00:24:39.862Z,1019.42
2019-02-27T00:25:39.833Z,1019.39
2019-02-27T00:26:42.533Z,1019.39
2019-02-27T00:27:39.803Z,1019.37
2019-02-27T00:28:39.793Z,1019.40
2019-02-27T00:29:39.781Z,1019.38
2019-02-27T00:30:39.785Z,1019.41
2019-02-27T00:31:39.782Z,1019.40
2019-02-27T00:32:39.749Z,1019.42
2019-02-27T00:33:39.756Z,1019.42
2019-02-27T00:34:39.753Z,1019.46
2019-02-27T00:35:39.728Z,1019.51
2019-02-27T00:36:39.706Z,1019.48
2019-02-27T00:37:39.692Z,1019.50
2019-02-27T00:38:39.691Z,1019.47
2019-02-27T00:39:39.669Z,1019.47
2019-02-27T00:40:39.688Z,1019.49
2019-02-27T00:41:39.682Z,1019.50
2019-02-27T00:42:39.636Z,1019.50
2019-02-27T00:43:39.633Z,1019.50
2019-02-27T00:44:39.634Z,1019.45
2019-02-27T00:45:40.091Z,1019.45
2019-02-27T00:46:39.591Z,1019.45
2019-02-27T00:47:39.586Z,1019.41
2019-02-27T00:48:39.568Z,1019.42
2019-02-27T00:49:39.560Z,1019.40
2019-02-27T00:50:39.711Z,1019.37
2019-02-27T00:51:39.534Z,1019.35
2019-02-27T00:52:39.524Z,1019.33
2019-02-27T00:53:39.516Z,1019.34
2019-02-27T00:54:39.518Z,1019.34
2019-02-27T00:55:39.582Z,1019.41
2019-02-27T00:56:39.479Z,1019.31
2019-02-27T00:57:39.491Z,1019.29
2019-02-27T00:58:39.455Z,1019.28
2019-02-27T00:59:39.447Z,1019.27
2019-02-27T01:00:40.016Z,1019.30
2019-02-27T01:01:39.425Z,1019.23
2019-02-27T01:02:39.408Z,1019.26
2019-02-27T01:03:39.400Z,1019.23
2019-02-27T01:04:39.401Z,1019.19
2019-02-27T01:05:41.131Z,1019.21
2019-02-27T01:06:39.363Z,1019.19
2019-02-27T01:07:39.364Z,1019.21
2019-02-27T01:08:39.343Z,1019.18
2019-02-27T01:09:39.554Z,1019.20
2019-02-27T01:10:39.331Z,1019.24
2019-02-27T01:11:39.317Z,1019.20
2019-02-27T01:12:39.297Z,1019.23
2019-02-27T01:13:39.289Z,1019.23
2019-02-27T01:14:39.279Z,1019.21
2019-02-27T01:15:41.757Z,1019.21
2019-02-27T01:16:39.258Z,1019.19
2019-02-27T01:17:39.263Z,1019.15
2019-02-27T01:18:39.235Z,1019.18
2019-02-27T01:19:39.381Z,1019.21
2019-02-27T01:20:39.229Z,1019.23
2019-02-27T01:21:39.203Z,1019.18
2019-02-27T01:22:39.193Z,1019.19
2019-02-27T01:23:43.888Z,1019.14
2019-02-27T01:24:40.165Z,1019.12
2019-02-27T01:25:39.182Z,1019.08
2019-02-27T01:26:39.140Z,1019.12
2019-02-27T01:27:39.155Z,1019.06
2019-02-27T01:28:39.123Z,1019.11
2019-02-27T01:29:39.123Z,1019.09
2019-02-27T01:30:39.133Z,1019.08
2019-02-27T01:31:39.087Z,1019.09
2019-02-27T01:32:39.082Z,1019.09
2019-02-27T01:33:39.097Z,1019.08
2019-02-27T01:34:39.062Z,1019.05
2019-02-27T01:35:39.317Z,1019.07
2019-02-27T01:36:39.028Z,1019.06
2019-02-27T01:37:39.028Z,1019.07
2019-02-27T01:38:39.016Z,1019.09
2019-02-27T01:39:38.995Z,1019.10
2019-02-27T01:40:38.987Z,1019.08
2019-02-27T01:41:38.991Z,1019.04
2019-02-27T01:42:38.961Z,1019.03
2019-02-27T01:43:40.046Z,1018.97
2019-02-27T01:44:38.942Z,1018.97
2019-02-27T01:45:38.928Z,1018.95
2019-02-27T01:46:38.949Z,1018.94
2019-02-27T01:47:38.902Z,1018.90
2019-02-27T01:48:42.730Z,1018.89
2019-02-27T01:49:38.883Z,1018.87
2019-02-27T01:50:38.874Z,1018.90
2019-02-27T01:51:38.885Z,1018.87
2019-02-27T01:52:38.850Z,1018.91
2019-02-27T01:53:40.476Z,1018.94
2019-02-27T01:54:38.829Z,1018.87
2019-02-27T01:55:38.811Z,1018.84
2019-02-27T01:56:38.818Z,1018.85
2019-02-27T01:57:38.796Z,1018.81
2019-02-27T01:58:43.283Z,1018.82
2019-02-27T01:59:39.781Z,1018.79
2019-02-27T02:00:38.759Z,1018.80
2019-02-27T02:01:38.755Z,1018.76
2019-02-27T02:02:40.499Z,1018.77
2019-02-27T02:03:38.784Z,1018.76
2019-02-27T02:04:38.737Z,1018.69
2019-02-27T02:05:38.700Z,1018.69
2019-02-27T02:06:38.727Z,1018.65
2019-02-27T02:07:40.286Z,1018.64
2019-02-27T02:08:38.665Z,1018.61
2019-02-27T02:09:38.656Z,1018.58
2019-02-27T02:10:38.659Z,1018.57
2019-02-27T02:11:38.628Z,1018.56
2019-02-27T02:12:39.040Z,1018.56
2019-02-27T02:13:38.609Z,1018.49
2019-02-27T02:14:38.636Z,1018.50
2019-02-27T02:15:38.602Z,1018.51
2019-02-27T02:16:38.593Z,1018.49
2019-02-27T02:17:41.006Z,1018.45
2019-02-27T02:18:38.568Z,1018.44
2019-02-27T02:19:38.545Z,1018.46
2019-02-27T02:20:38.526Z,1018.37
2019-02-27T02:21:38.519Z,1018.41
2019-02-27T02:22:38.908Z,1018.40
2019-02-27T02:23:38.511Z,1018.38
2019-02-27T02:24:38.486Z,1018.39
2019-02-27T02:25:38.469Z,1018.39
2019-02-27T02:26:38.458Z,1018.39
2019-02-27T02:27:39.142Z,1018.43
2019-02-27T02:28:38.445Z,1018.39
2019-02-27T02:29:38.445Z,1018.37
2019-02-27T02:30:38.418Z,1018.36
2019-02-27T02:31:41.633Z,1018.32
2019-02-27T02:32:38.407Z,1018.33
2019-02-27T02:33:38.383Z,1018.31
2019-02-27T02:34:40.108Z,1018.25
2019-02-27T02:35:38.365Z,1018.31
2019-02-27T02:36:38.349Z,1018.30
2019-02-27T02:37:38.357Z,1018.33
2019-02-27T02:38:38.412Z,1018.31
2019-02-27T02:39:38.318Z,1018.31
2019-02-27T02:40:38.316Z,1018.33
2019-02-27T02:41:38.304Z,1018.26
2019-02-27T02:42:38.287Z,1018.30
2019-02-27T02:43:41.530Z,1018.30
2019-02-27T02:44:38.263Z,1018.27
2019-02-27T02:45:38.242Z,1018.32
2019-02-27T02:46:44.842Z,1018.30
2019-02-27T02:47:39.239Z,1018.34
2019-02-27T02:48:38.210Z,1018.35
2019-02-27T02:49:42.065Z,1018.35
2019-02-27T02:50:38.202Z,1018.36
2019-02-27T02:51:38.189Z,1018.37
2019-02-27T02:52:40.746Z,1018.39
2019-02-27T02:53:38.153Z,1018.37
2019-02-27T02:54:38.209Z,1018.33
2019-02-27T02:55:38.144Z,1018.36
2019-02-27T02:56:38.118Z,1018.33
2019-02-27T02:57:38.141Z,1018.35
2019-02-27T02:58:38.095Z,1018.28
2019-02-27T02:59:38.086Z,1018.29
2019-02-27T03:00:39.259Z,1018.29
2019-02-27T03:01:38.064Z,1018.25
2019-02-27T03:02:38.054Z,1018.24
2019-02-27T03:03:38.056Z,1018.20
2019-02-27T03:04:38.034Z,1018.18
2019-02-27T03:05:38.063Z,1018.18
2019-02-27T03:06:38.017Z,1018.13
2019-02-27T03:07:37.999Z,1018.11
2019-02-27T03:08:37.998Z,1018.11
2019-02-27T03:09:37.998Z,1018.15
2019-02-27T03:10:42.493Z,1018.17
2019-02-27T03:11:38.960Z,1018.14
2019-02-27T03:12:37.965Z,1018.11
2019-02-27T03:13:41.548Z,1018.06
2019-02-27T03:14:37.923Z,1018.10
2019-02-27T03:15:37.904Z,1018.14
2019-02-27T03:16:41.188Z,1018.11
2019-02-27T03:17:37.890Z,1018.03
2019-02-27T03:18:37.892Z,1018.07
2019-02-27T03:19:41.280Z,1018.12
2019-02-27T03:20:37.870Z,1018.10
2019-02-27T03:21:37.837Z,1018.07
2019-02-27T03:22:41.660Z,1018.09
2019-02-27T03:23:37.843Z,1018.11
2019-02-27T03:24:37.806Z,1018.04
2019-02-27T03:25:40.684Z,1017.97
2019-02-27T03:26:37.794Z,1017.96
2019-02-27T03:27:37.776Z,1017.94
2019-02-27T03:28:40.912Z,1017.96
2019-02-27T03:29:37.766Z,1017.91
2019-02-27T03:30:37.741Z,1017.93
2019-02-27T03:31:37.737Z,1017.96
2019-02-27T03:32:43.267Z,1017.95
2019-02-27T03:33:38.711Z,1017.91
2019-02-27T03:34:47.899Z,1017.94
2019-02-27T03:35:38.684Z,1017.92
2019-02-27T03:36:38.980Z,1017.94
2019-02-27T03:37:37.662Z,1017.92
2019-02-27T03:38:37.650Z,1017.95
2019-02-27T03:39:37.652Z,1017.91
2019-02-27T03:40:37.640Z,1017.90
2019-02-27T03:41:37.614Z,1017.86
2019-02-27T03:42:37.605Z,1017.86
2019-02-27T03:43:37.608Z,1017.89
2019-02-27T03:44:37.598Z,1017.85
2019-02-27T03:45:37.575Z,1017.88
2019-02-27T03:46:40.759Z,1017.86
2019-02-27T03:47:37.550Z,1017.84
2019-02-27T03:48:37.564Z,1017.81
2019-02-27T03:49:40.743Z,1017.82
2019-02-27T03:50:37.525Z,1017.81
2019-02-27T03:51:37.538Z,1017.78
2019-02-27T03:52:37.510Z,1017.80
2019-02-27T03:53:37.494Z,1017.82
2019-02-27T03:54:37.485Z,1017.80
2019-02-27T03:55:37.469Z,1017.80
2019-02-27T03:56:43.547Z,1017.81
2019-02-27T03:57:38.434Z,1017.82
2019-02-27T03:58:37.447Z,1017.78
2019-02-27T03:59:42.154Z,1017.80
2019-02-27T04:00:38.434Z,1017.81
2019-02-27T04:01:37.404Z,1017.82
2019-02-27T04:02:38.880Z,1017.79
2019-02-27T04:03:37.377Z,1017.78
2019-02-27T04:04:37.392Z,1017.78
2019-02-27T04:05:41.209Z,1017.76
2019-02-27T04:06:37.343Z,1017.74
2019-02-27T04:07:37.334Z,1017.75
2019-02-27T04:08:43.597Z,1017.76
2019-02-27T04:09:38.315Z,1017.78
2019-02-27T04:10:37.296Z,1017.76
2019-02-27T04:11:41.419Z,1017.79
2019-02-27T04:12:38.267Z,1017.82
2019-02-27T04:13:37.275Z,1017.80
2019-02-27T04:14:42.067Z,1017.76
2019-02-27T04:15:37.245Z,1017.73
2019-02-27T04:16:38.223Z,1017.71
2019-02-27T04:17:37.216Z,1017.74
2019-02-27T04:18:37.211Z,1017.74
2019-02-27T04:19:39.306Z,1017.74
2019-02-27T04:20:37.194Z,1017.72
2019-02-27T04:21:37.166Z,1017.80
2019-02-27T04:22:37.686Z,1017.79
2019-02-27T04:23:37.146Z,1017.84
2019-02-27T04:24:37.164Z,1017.83
2019-02-27T04:25:37.134Z,1017.79
2019-02-27T04:26:41.505Z,1017.80
2019-02-27T04:27:38.106Z,1017.83
2019-02-27T04:28:37.093Z,1017.83
2019-02-27T04:29:40.795Z,1017.84
2019-02-27T04:30:37.082Z,1017.85
2019-02-27T04:31:37.054Z,1017.85
2019-02-27T04:32:37.042Z,1017.88
2019-02-27T04:33:37.035Z,1017.89
2019-02-27T04:34:37.062Z,1017.95
2019-02-27T04:35:39.157Z,1017.90
2019-02-27T04:36:37.004Z,1017.91
2019-02-27T04:37:36.988Z,1017.91
2019-02-27T04:38:36.976Z,1017.85
2019-02-27T04:39:38.281Z,1017.90
2019-02-27T04:40:36.987Z,1017.92
2019-02-27T04:41:36.945Z,1017.94
2019-02-27T04:42:36.950Z,1017.95
2019-02-27T04:43:36.928Z,1017.95
2019-02-27T04:44:38.910Z,1018.00
2019-02-27T04:45:36.915Z,1017.98
2019-02-27T04:46:36.889Z,1017.93
2019-02-27T04:47:36.873Z,1017.95
2019-02-27T04:48:36.864Z,1017.91
2019-02-27T04:49:37.822Z,1017.94
2019-02-27T04:50:36.854Z,1017.94
2019-02-27T04:51:36.858Z,1017.92
2019-02-27T04:52:36.820Z,1017.93
2019-02-27T04:53:36.809Z,1017.90
2019-02-27T04:54:41.251Z,1017.92
2019-02-27T04:55:37.829Z,1017.90
2019-02-27T04:56:36.780Z,1017.90
2019-02-27T04:57:36.765Z,1017.90
2019-02-27T04:58:36.753Z,1017.87
2019-02-27T04:59:36.746Z,1017.86
2019-02-27T05:00:36.746Z,1017.84
2019-02-27T05:01:37.450Z,1017.86
2019-02-27T05:02:36.707Z,1017.86
2019-02-27T05:03:36.731Z,1017.83
2019-02-27T05:04:36.708Z,1017.88
2019-02-27T05:05:39.056Z,1017.83
2019-02-27T05:06:36.666Z,1017.87
2019-02-27T05:07:36.671Z,1017.87
2019-02-27T05:08:36.665Z,1017.88
2019-02-27T05:09:36.653Z,1017.83
2019-02-27T05:10:38.114Z,1017.84
2019-02-27T05:11:36.624Z,1017.85
2019-02-27T05:12:36.604Z,1017.86
2019-02-27T05:13:36.592Z,1017.84
2019-02-27T05:14:36.576Z,1017.84
2019-02-27T05:15:38.897Z,1017.84
2019-02-27T05:16:36.549Z,1017.81
2019-02-27T05:17:36.538Z,1017.79
2019-02-27T05:18:36.542Z,1017.79
2019-02-27T05:19:37.220Z,1017.83
2019-02-27T05:20:36.516Z,1017.87
2019-02-27T05:21:36.507Z,1017.85
2019-02-27T05:22:36.509Z,1017.81
2019-02-27T05:23:36.478Z,1017.87
2019-02-27T05:24:40.642Z,1017.86
2019-02-27T05:25:36.447Z,1017.84
2019-02-27T05:26:36.446Z,1017.88
2019-02-27T05:27:36.431Z,1017.89
2019-02-27T05:28:36.427Z,1017.86
2019-02-27T05:29:37.534Z,1017.88
2019-02-27T05:30:36.401Z,1017.84
2019-02-27T05:31:36.400Z,1017.88
2019-02-27T05:32:36.371Z,1017.89
2019-02-27T05:33:38.869Z,1017.89
2019-02-27T05:34:36.352Z,1017.93
2019-02-27T05:35:36.343Z,1017.92
2019-02-27T05:36:36.340Z,1017.89
2019-02-27T05:37:39.247Z,1017.95
2019-02-27T05:38:36.320Z,1017.92
2019-02-27T05:39:36.310Z,1017.94
2019-02-27T05:40:36.291Z,1017.92
2019-02-27T05:41:36.285Z,1017.90
2019-02-27T05:42:38.604Z,1017.91
2019-02-27T05:43:36.256Z,1017.95
2019-02-27T05:44:36.262Z,1017.90
2019-02-27T05:45:36.227Z,1017.92
2019-02-27T05:46:38.503Z,1017.92
2019-02-27T05:47:36.203Z,1017.96
2019-02-27T05:48:36.195Z,1017.95
2019-02-27T05:49:36.237Z,1017.94
2019-02-27T05:50:36.178Z,1017.96
2019-02-27T05:51:36.155Z,1017.97
2019-02-27T05:52:36.164Z,1017.94
2019-02-27T05:53:36.169Z,1017.97
2019-02-27T05:54:36.130Z,1017.96
2019-02-27T05:55:38.981Z,1017.94
2019-02-27T05:56:36.126Z,1017.90
2019-02-27T05:57:36.146Z,1017.94
2019-02-27T05:58:36.125Z,1017.89
2019-02-27T05:59:36.070Z,1017.89
2019-02-27T06:00:36.062Z,1017.91
2019-02-27T06:01:38.302Z,1017.87
2019-02-27T06:02:36.058Z,1017.84
2019-02-27T06:03:36.025Z,1017.84
2019-02-27T06:04:36.025Z,1017.78
2019-02-27T06:05:36.646Z,1017.81
2019-02-27T06:06:35.993Z,1017.82
2019-02-27T06:07:35.988Z,1017.85
2019-02-27T06:08:38.092Z,1017.88
2019-02-27T06:09:35.959Z,1017.89
2019-02-27T06:10:35.943Z,1017.88
2019-02-27T06:11:36.015Z,1017.93
2019-02-27T06:12:39.995Z,1017.91
2019-02-27T06:13:35.910Z,1017.93
2019-02-27T06:14:35.902Z,1017.94
2019-02-27T06:15:35.909Z,1017.88
2019-02-27T06:16:37.543Z,1017.90
2019-02-27T06:17:43.130Z,1017.89
2019-02-27T06:18:36.851Z,1017.87
2019-02-27T06:19:35.871Z,1017.88
2019-02-27T06:20:35.829Z,1017.90
2019-02-27T06:21:35.871Z,1017.93
2019-02-27T06:22:35.829Z,1017.93
2019-02-27T06:23:37.730Z,1017.95
2019-02-27T06:24:35.801Z,1017.96
2019-02-27T06:25:35.827Z,1017.92
2019-02-27T06:26:35.802Z,1017.93
2019-02-27T06:27:37.201Z,1017.94
2019-02-27T06:28:36.152Z,1017.91
2019-02-27T06:29:35.814Z,1017.90
2019-02-27T06:30:35.733Z,1017.87
2019-02-27T06:31:38.845Z,1017.86
2019-02-27T06:32:35.810Z,1017.85
2019-02-27T06:33:35.701Z,1017.86
2019-02-27T06:34:35.673Z,1017.79
2019-02-27T06:35:35.685Z,1017.81
2019-02-27T06:36:35.650Z,1017.78
2019-02-27T06:37:35.638Z,1017.81
2019-02-27T06:38:35.641Z,1017.76
2019-02-27T06:39:35.618Z,1017.76
2019-02-27T06:40:35.615Z,1017.73
2019-02-27T06:41:35.607Z,1017.71
2019-02-27T06:42:35.612Z,1017.73
2019-02-27T06:43:35.587Z,1017.71
2019-02-27T06:44:36.638Z,1017.70
2019-02-27T06:45:35.553Z,1017.75
2019-02-27T06:46:35.544Z,1017.78
2019-02-27T06:47:36.213Z,1017.76
2019-02-27T06:48:35.584Z,1017.77
2019-02-27T06:49:35.514Z,1017.79
2019-02-27T06:50:35.518Z,1017.75
2019-02-27T06:51:35.922Z,1017.75
2019-02-27T06:52:35.471Z,1017.72
2019-02-27T06:53:35.473Z,1017.75
2019-02-27T06:54:35.470Z,1017.74
2019-02-27T06:55:35.448Z,1017.81
2019-02-27T06:56:35.429Z,1017.76
2019-02-27T06:57:35.414Z,1017.72
2019-02-27T06:58:35.418Z,1017.79
2019-02-27T06:59:35.430Z,1017.77
2019-02-27T07:00:36.762Z,1017.79
2019-02-27T07:01:35.372Z,1017.80
2019-02-27T07:02:35.374Z,1017.79
2019-02-27T07:03:35.363Z,1017.71
2019-02-27T07:04:36.486Z,1017.72
2019-02-27T07:05:35.351Z,1017.74
2019-02-27T07:06:36.879Z,1017.77
2019-02-27T07:07:35.325Z,1017.78
2019-02-27T07:08:37.920Z,1017.78
2019-02-27T07:09:35.285Z,1017.81
2019-02-27T07:10:35.282Z,1017.81
2019-02-27T07:11:35.290Z,1017.80
2019-02-27T07:12:35.254Z,1017.82
2019-02-27T07:13:35.239Z,1017.85
2019-02-27T07:14:36.502Z,1017.85
2019-02-27T07:15:35.223Z,1017.84
2019-02-27T07:16:35.203Z,1017.82
2019-02-27T07:17:35.190Z,1017.81
2019-02-27T07:18:36.495Z,1017.79
2019-02-27T07:19:35.185Z,1017.78
2019-02-27T07:20:35.160Z,1017.81
2019-02-27T07:21:35.160Z,1017.80
2019-02-27T07:22:35.135Z,1017.78
2019-02-27T07:23:35.330Z,1017.76
2019-02-27T07:24:35.123Z,1017.78
2019-02-27T07:25:35.100Z,1017.79
2019-02-27T07:26:35.097Z,1017.80
2019-02-27T07:27:35.089Z,1017.78
2019-02-27T07:28:35.075Z,1017.80
2019-02-27T07:29:35.091Z,1017.77
2019-02-27T07:30:35.086Z,1017.75
2019-02-27T07:31:35.056Z,1017.77
2019-02-27T07:32:35.053Z,1017.73
2019-02-27T07:33:35.024Z,1017.77
2019-02-27T07:34:35.023Z,1017.73
2019-02-27T07:35:34.991Z,1017.72
2019-02-27T07:36:35.962Z,1017.77
2019-02-27T07:37:34.972Z,1017.69
2019-02-27T07:38:34.963Z,1017.69
2019-02-27T07:39:34.963Z,1017.66
2019-02-27T07:40:34.932Z,1017.65
2019-02-27T07:41:34.930Z,1017.65
2019-02-27T07:42:36.310Z,1017.64
2019-02-27T07:43:34.958Z,1017.61
2019-02-27T07:44:35.844Z,1017.65
2019-02-27T07:45:34.899Z,1017.66
2019-02-27T07:46:35.572Z,1017.63
2019-02-27T07:47:34.851Z,1017.66
2019-02-27T07:48:34.858Z,1017.63
2019-02-27T07:49:34.850Z,1017.59
2019-02-27T07:50:34.826Z,1017.59
2019-02-27T07:51:34.819Z,1017.64
2019-02-27T07:52:34.813Z,1017.64
2019-02-27T07:53:34.789Z,1017.61
2019-02-27T07:54:34.800Z,1017.63
2019-02-27T07:55:34.823Z,1017.65
2019-02-27T07:56:34.759Z,1017.58
2019-02-27T07:57:34.756Z,1017.57
2019-02-27T07:58:34.780Z,1017.62
2019-02-27T07:59:37.959Z,1017.62
2019-02-27T08:00:34.761Z,1017.62
2019-02-27T08:01:43.500Z,1017.60
2019-02-27T08:02:36.225Z,1017.65
2019-02-27T08:03:34.693Z,1017.66
2019-02-27T08:04:34.664Z,1017.66
2019-02-27T08:05:34.665Z,1017.66
2019-02-27T08:06:37.368Z,1017.65
2019-02-27T08:07:34.635Z,1017.64
2019-02-27T08:08:34.638Z,1017.66
2019-02-27T08:09:34.644Z,1017.69
2019-02-27T08:10:36.862Z,1017.67
2019-02-27T08:11:34.586Z,1017.65
2019-02-27T08:12:34.584Z,1017.70
2019-02-27T08:13:34.593Z,1017.77
2019-02-27T08:14:36.755Z,1017.75
2019-02-27T08:15:34.596Z,1017.72
2019-02-27T08:16:36.943Z,1017.73
2019-02-27T08:17:34.519Z,1017.74
2019-02-27T08:18:37.720Z,1017.75
2019-02-27T08:19:34.508Z,1017.74
2019-02-27T08:20:34.511Z,1017.73
2019-02-27T08:21:34.489Z,1017.70
2019-02-27T08:22:34.467Z,1017.76
2019-02-27T08:23:34.495Z,1017.75
2019-02-27T08:24:34.444Z,1017.66
2019-02-27T08:25:34.711Z,1017.66
2019-02-27T08:26:36.450Z,1017.64
2019-02-27T08:27:34.410Z,1017.70
2019-02-27T08:28:34.395Z,1017.70
2019-02-27T08:29:34.394Z,1017.73
2019-02-27T08:30:34.401Z,1017.71
2019-02-27T08:31:34.410Z,1017.75
2019-02-27T08:32:34.624Z,1017.69
2019-02-27T08:33:34.358Z,1017.70
2019-02-27T08:34:34.327Z,1017.69
2019-02-27T08:35:34.370Z,1017.72
2019-02-27T08:36:34.306Z,1017.72
2019-02-27T08:37:34.312Z,1017.71
2019-02-27T08:38:34.286Z,1017.75
2019-02-27T08:39:34.274Z,1017.77
2019-02-27T08:40:34.280Z,1017.70
2019-02-27T08:41:34.255Z,1017.63
2019-02-27T08:42:36.848Z,1017.65
2019-02-27T08:43:34.291Z,1017.71
2019-02-27T08:44:34.220Z,1017.69
2019-02-27T08:45:34.220Z,1017.66
2019-02-27T08:46:36.995Z,1017.68
2019-02-27T08:47:34.182Z,1017.68
2019-02-27T08:48:34.174Z,1017.62
2019-02-27T08:49:34.160Z,1017.58
2019-02-27T08:50:34.170Z,1017.59
2019-02-27T08:51:34.139Z,1017.60
2019-02-27T08:52:34.133Z,1017.63
2019-02-27T08:53:34.569Z,1017.60
2019-02-27T08:54:34.106Z,1017.57
2019-02-27T08:55:34.123Z,1017.55
2019-02-27T08:56:34.079Z,1017.58
2019-02-27T08:57:34.165Z,1017.56
2019-02-27T08:58:34.057Z,1017.61
2019-02-27T08:59:34.059Z,1017.63
2019-02-27T09:00:34.058Z,1017.62
2019-02-27T09:01:34.032Z,1017.66
2019-02-27T09:02:34.012Z,1017.68
2019-02-27T09:03:36.360Z,1017.69
2019-02-27T09:04:33.992Z,1017.68
2019-02-27T09:05:33.992Z,1017.67
2019-02-27T09:06:34.008Z,1017.61
2019-02-27T09:07:36.484Z,1017.65
2019-02-27T09:08:33.946Z,1017.66
2019-02-27T09:09:36.127Z,1017.62
2019-02-27T09:10:33.929Z,1017.64
2019-02-27T09:11:33.936Z,1017.61
2019-02-27T09:12:33.914Z,1017.57
2019-02-27T09:13:33.894Z,1017.58
2019-02-27T09:14:33.888Z,1017.53
2019-02-27T09:15:33.865Z,1017.58
2019-02-27T09:16:33.867Z,1017.57
2019-02-27T09:17:33.850Z,1017.51
2019-02-27T09:18:36.481Z,1017.50
2019-02-27T09:19:33.821Z,1017.47
2019-02-27T09:20:33.810Z,1017.44
2019-02-27T09:21:33.807Z,1017.49
2019-02-27T09:22:36.552Z,1017.51
2019-02-27T09:23:33.778Z,1017.51
2019-02-27T09:24:33.784Z,1017.43
2019-02-27T09:25:33.753Z,1017.43
2019-02-27T09:26:35.833Z,1017.38
2019-02-27T09:27:35.312Z,1017.37
2019-02-27T09:28:33.719Z,1017.38
2019-02-27T09:29:33.723Z,1017.35
2019-02-27T09:30:33.712Z,1017.31
2019-02-27T09:31:34.733Z,1017.36
2019-02-27T09:32:33.671Z,1017.33
2019-02-27T09:33:38.931Z,1017.34
2019-02-27T09:34:34.684Z,1017.36
2019-02-27T09:35:38.324Z,1017.37
2019-02-27T09:36:34.638Z,1017.37
2019-02-27T09:37:34.605Z,1017.33
2019-02-27T09:38:33.606Z,1017.35
2019-02-27T09:39:35.112Z,1017.38
2019-02-27T09:40:38.543Z,1017.36
2019-02-27T09:41:34.581Z,1017.31
2019-02-27T09:42:33.559Z,1017.26
2019-02-27T09:43:33.562Z,1017.28
2019-02-27T09:44:36.351Z,1017.26
2019-02-27T09:45:34.874Z,1017.35
2019-02-27T09:46:33.543Z,1017.24
2019-02-27T09:47:33.507Z,1017.20
2019-02-27T09:48:34.080Z,1017.21
2019-02-27T09:49:33.483Z,1017.14
2019-02-27T09:50:33.471Z,1017.10
2019-02-27T09:51:33.484Z,1017.10
2019-02-27T09:52:33.448Z,1017.05
2019-02-27T09:53:33.935Z,1017.07
2019-02-27T09:54:34.038Z,1017.03
2019-02-27T09:55:33.411Z,1017.01
2019-02-27T09:56:33.402Z,1017.02
2019-02-27T09:57:35.338Z,1016.99
2019-02-27T09:58:33.388Z,1017.00
2019-02-27T09:59:33.365Z,1016.95
2019-02-27T10:00:33.479Z,1016.93
2019-02-27T10:01:35.149Z,1016.92
2019-02-27T10:02:33.654Z,1016.94
2019-02-27T10:03:33.380Z,1016.90
2019-02-27T10:04:33.316Z,1016.93
2019-02-27T10:05:36.256Z,1016.84
2019-02-27T10:06:33.310Z,1016.81
2019-02-27T10:07:33.287Z,1016.80
2019-02-27T10:08:33.286Z,1016.74
2019-02-27T10:09:34.875Z,1016.65
2019-02-27T10:10:33.281Z,1016.74
2019-02-27T10:11:33.229Z,1016.65
2019-02-27T10:12:33.246Z,1016.68
2019-02-27T10:13:35.447Z,1016.70
2019-02-27T10:14:33.205Z,1016.69
2019-02-27T10:15:34.471Z,1016.71
2019-02-27T10:16:34.861Z,1016.74
2019-02-27T10:17:33.174Z,1016.75
2019-02-27T10:18:33.154Z,1016.70
2019-02-27T10:19:33.140Z,1016.69
2019-02-27T10:20:36.696Z,1016.67
2019-02-27T10:21:33.138Z,1016.70
2019-02-27T10:22:33.142Z,1016.64
2019-02-27T10:23:33.097Z,1016.68
2019-02-27T10:24:33.089Z,1016.71
2019-02-27T10:25:33.073Z,1016.72
2019-02-27T10:26:33.076Z,1016.68
2019-02-27T10:27:33.077Z,1016.69
2019-02-27T10:28:35.641Z,1016.67
2019-02-27T10:29:34.027Z,1016.68
2019-02-27T10:30:33.016Z,1016.65
2019-02-27T10:31:33.007Z,1016.64
2019-02-27T10:32:36.457Z,1016.58
2019-02-27T10:33:33.011Z,1016.54
2019-02-27T10:34:32.973Z,1016.52
2019-02-27T10:35:34.706Z,1016.47
2019-02-27T10:36:32.947Z,1016.55
2019-02-27T10:37:32.971Z,1016.56
2019-02-27T10:38:32.940Z,1016.59
2019-02-27T10:39:36.894Z,1016.48
2019-02-27T10:40:32.911Z,1016.54
2019-02-27T10:41:32.897Z,1016.52
2019-02-27T10:42:32.879Z,1016.59
2019-02-27T10:43:32.934Z,1016.55
2019-02-27T10:44:33.929Z,1016.57
2019-02-27T10:45:32.874Z,1016.49
2019-02-27T10:46:32.834Z,1016.48
2019-02-27T10:47:33.667Z,1016.47
2019-02-27T10:48:32.839Z,1016.47
2019-02-27T10:49:32.844Z,1016.45
2019-02-27T10:50:35.389Z,1016.41
2019-02-27T10:51:32.785Z,1016.46
2019-02-27T10:52:32.792Z,1016.39
2019-02-27T10:53:32.799Z,1016.37
2019-02-27T10:54:32.758Z,1016.38
2019-02-27T10:55:32.756Z,1016.40
2019-02-27T10:56:32.777Z,1016.34
2019-02-27T10:57:38.177Z,1016.35
2019-02-27T10:58:33.707Z,1016.35
2019-02-27T10:59:32.692Z,1016.32
2019-02-27T11:00:32.681Z,1016.32
2019-02-27T11:01:33.204Z,1016.29
2019-02-27T11:02:32.660Z,1016.27
2019-02-27T11:03:32.654Z,1016.21
2019-02-27T11:04:32.635Z,1016.16
2019-02-27T11:05:32.619Z,1016.13
2019-02-27T11:06:34.207Z,1016.12
2019-02-27T11:07:32.605Z,1016.07
2019-02-27T11:08:32.611Z,1016.08
2019-02-27T11:09:32.588Z,1016.03
2019-02-27T11:10:32.566Z,1016.05
2019-02-27T11:11:32.563Z,1016.04
2019-02-27T11:12:32.543Z,1016.06
2019-02-27T11:13:32.542Z,1016.01
2019-02-27T11:14:32.782Z,1016.06
2019-02-27T11:15:32.521Z,1015.99
2019-02-27T11:16:32.531Z,1016.01
2019-02-27T11:17:32.499Z,1015.95
2019-02-27T11:18:32.483Z,1015.93
2019-02-27T11:19:34.605Z,1016.02
2019-02-27T11:20:32.492Z,1016.03
2019-02-27T11:21:32.458Z,1015.99
2019-02-27T11:22:32.432Z,1015.94
2019-02-27T11:23:32.423Z,1015.92
2019-02-27T11:24:32.428Z,1015.85
2019-02-27T11:25:32.401Z,1015.87
2019-02-27T11:26:33.341Z,1015.89
2019-02-27T11:27:32.377Z,1015.91
2019-02-27T11:28:32.370Z,1015.79
2019-02-27T11:29:32.402Z,1015.80
2019-02-27T11:30:35.987Z,1015.70
2019-02-27T11:31:32.326Z,1015.75
2019-02-27T11:32:32.331Z,1015.78
2019-02-27T11:33:33.466Z,1015.65
2019-02-27T11:34:32.305Z,1015.65
2019-02-27T11:35:32.282Z,1015.64
2019-02-27T11:36:32.268Z,1015.65
2019-02-27T11:37:32.285Z,1015.58
2019-02-27T11:38:32.267Z,1015.60
2019-02-27T11:39:32.903Z,1015.62
2019-02-27T11:40:32.231Z,1015.62
2019-02-27T11:41:32.348Z,1015.62
2019-02-27T11:42:32.743Z,1015.59
2019-02-27T11:43:32.204Z,1015.57
2019-02-27T11:44:32.215Z,1015.57
2019-02-27T11:45:32.168Z,1015.48
2019-02-27T11:46:32.158Z,1015.47
2019-02-27T11:47:32.151Z,1015.38
2019-02-27T11:48:32.134Z,1015.40
2019-02-27T11:49:32.146Z,1015.42
2019-02-27T11:50:32.122Z,1015.41
2019-02-27T11:51:32.119Z,1015.37
2019-02-27T11:52:32.094Z,1015.41
2019-02-27T11:53:35.647Z,1015.43
2019-02-27T11:54:32.078Z,1015.42
2019-02-27T11:55:32.067Z,1015.38
2019-02-27T11:56:32.058Z,1015.39
2019-02-27T11:57:32.037Z,1015.26
2019-02-27T11:58:32.047Z,1015.31
2019-02-27T11:59:32.010Z,1015.34
2019-02-27T12:00:32.007Z,1015.29
2019-02-27T12:01:32.222Z,1015.28
2019-02-27T12:02:36.890Z,1015.32
2019-02-27T12:03:32.963Z,1015.27
2019-02-27T12:04:31.993Z,1015.21
2019-02-27T12:05:34.307Z,1015.17